Southern Sonoma County Latest

20 Stations

15 Minute Data | America/Los_Angeles
as of 7/14/24 12:22 AM PDT
Station Date Time Temp (°F) RH (%) Dew Pt (°F) Wind Spd (mph) Wind Dir (°) Wind Gust (mph) Latest Rain (In) Daily Rain (In) Daily Min Temp (°F) Daily Max Temp (°F)
Upper Rincon Valley 7/14/24 0015 57.7   4.8 72   10 48.6   0.6 1.7   0.5 N | 357 2.8   0.7 0.00 0.00 51.0   10.9 78.1   16.1
Lower Bennett Valley 7/14/24 0015 55.2   0.9 91   5 52.8   2.3 3.0   2.4 WNW | 296 5.7   4.5 0.00 0.00 48.5   3.2 82.3   16.0
Kenwood (Wildwood) 7/14/24 0015 57.4   2.5 83   11 52.3   1.3 3.7   1.5 N | 0 7.6   3.0 0.00 0.00 53.0   5.4 84.2   19.6
Sonoma Valley (Bedrock) 7/14/24 0015 57.9   1.2 - 51.3   2.8 6.0   4.9 NNW | 343 10.8   7.4 0.00 0.00 51.7   3.0 84.2   11.7
Sonoma-West (Arnold) 6/11/24 1500 98.1   10.6 26   7 57.4   2.1 6.8   1.3 SW | 217 11.5   4.1 0.00 0.00 47.9   6.5 98.1   9.7
Sonoma Valley HS 4/23/24 0915 56.0   7.1 77   2 48.9   7.4 2.2   1.4 WSW | 241 5.5   2.9 0.00 0.00 49.3   0.2 56.4   7.8
Sonoma East (Bundschu01) 7/14/24 0015 57.2   0.7 80   1 51.2   0.3 4.7   2.1 SE | 143 7.0   2.4 0.00 0.00 51.7   3.2 86.2   4.7
Schellville (Sasaki) 7/14/24 0015 58.7   2.0 80   2 52.6   1.1 6.8   1.4 S | 172 11.1   2.3 0.00 0.00 53.7   1.1 85.8   5.1
Sonoma-SE (Napoli) 7/14/24 0015 57.2   0.4 81   2 51.4   0.2 1.6   1.6 SE | 138 3.8   3.8 0.00 0.00 51.6   3.0 87.5   4.4
Ricci Vineyards (Carneros) 7/14/24 0015 58.4   0.0 80   1 52.3   0.4 0.7   2.6 NW | 315 2.4   4.5 0.00 0.00 53.6   2.5 85.3   2.8
Carneros (Ranch 71) 7/14/24 0015 58.5   0.9 79   1 52.0   0.4 2.2   1.5 SSW | 211 4.8   1.7 0.00 0.00 53.7   3.5 82.8   4.1
Carneros Upper (Ranch 81) 7/14/24 0015 59.5   0.6 85   5 55.1   2.3 1.5   1.2 SSW | 196 3.9   1.6 - - 54.7   3.9 82.4   6.9
Carneros Lower (Ranch 81) 7/14/24 0015 58.0   0.7 89   5 54.7   0.7 0.0   0.5 N | 0 0.0   3.7 0.00 0.00 53.5   2.7 82.9   3.9
Rohnert Park-West (Stony Point) 7/14/24 0015 55.1   2.4 94   1 53.6   2.1 0.9   0.1 WNW | 300 4.7   2.2 0.00 0.00 52.5   2.1 75.1   10.5
Cartograph Wines Base 7/14/24 0015 55.1   2.6 96   2 54.1   1.9 4.2   1.4 WSW | 256 8.4   1.5 0.00 0.00 51.8   0.6 71.8   7.4
Cartograph Wines Remote 7/14/24 0015 57.1   3.6 - - - - - - - 52.6   0.0 88.9   3.3
Rice-Spivak Vineyard 7/14/24 0015 55.7   3.0 - - - - - - - 50.8   4.2 75.9   7.5
Penngrove (Asellus) 7/14/24 0015 55.0   1.3 90   0 52.2   1.2 3.4   1.8 NW | 318 6.6   2.9 0.00 0.00 51.2   0.1 78.4   13.7
Roger's Creek (Ranch 50) 7/14/24 0015 53.8   1.5 92   1 51.6   1.1 5.9   1.8 WSW | 254 9.3   1.5 0.00 0.00 50.0   2.0 82.2   13.2
Petaluma (Ranch 10) 7/14/24 0015 56.7   2.2 86   3 52.6   1.2 3.1   0.4 WNW | 294 8.4   2.9 0.00 0.00 53.2   0.9 82.5   12.0
Max     59.5 96 55.1 6.8 - 11.1 0.00 0.00 54.7 88.9
Avg     56.9 85 52.4 3.1 - 6.1 0.00 - - -
Min     53.8 72 48.6 0.0 - 0.0 0.00 0.00 48.5 71.8